sensor_id;sensor_type;location;lat;lon;timestamp;temperature;humidity
53876;DHT22;39789;53.216;5.624;2022-10-28T00:01:05;14.10;99.90
53876;DHT22;39789;53.216;5.624;2022-10-28T00:03:31;14.00;99.90
53876;DHT22;39789;53.216;5.624;2022-10-28T00:06:06;14.10;99.90
53876;DHT22;39789;53.216;5.624;2022-10-28T00:08:32;14.10;99.90
53876;DHT22;39789;53.216;5.624;2022-10-28T00:11:06;14.00;99.90
53876;DHT22;39789;53.216;5.624;2022-10-28T00:13:32;14.00;99.90
53876;DHT22;39789;53.216;5.624;2022-10-28T00:16:07;14.00;99.90
53876;DHT22;39789;53.216;5.624;2022-10-28T00:18:33;14.00;99.90
53876;DHT22;39789;53.216;5.624;2022-10-28T00:21:05;14.00;99.90
53876;DHT22;39789;53.216;5.624;2022-10-28T00:23:30;13.90;99.90
53876;DHT22;39789;53.216;5.624;2022-10-28T00:26:03;13.90;99.90
53876;DHT22;39789;53.216;5.624;2022-10-28T00:28:29;13.90;99.90
53876;DHT22;39789;53.216;5.624;2022-10-28T00:30:54;13.80;99.90
53876;DHT22;39789;53.216;5.624;2022-10-28T00:33:20;13.80;99.90
53876;DHT22;39789;53.216;5.624;2022-10-28T00:35:45;13.70;99.90
53876;DHT22;39789;53.216;5.624;2022-10-28T00:38:11;13.70;99.90
53876;DHT22;39789;53.216;5.624;2022-10-28T00:40:36;13.60;99.90
53876;DHT22;39789;53.216;5.624;2022-10-28T00:43:02;13.60;99.90
53876;DHT22;39789;53.216;5.624;2022-10-28T00:45:28;13.60;99.90
53876;DHT22;39789;53.216;5.624;2022-10-28T00:47:57;13.60;99.90
53876;DHT22;39789;53.216;5.624;2022-10-28T00:50:48;13.60;99.90
53876;DHT22;39789;53.216;5.624;2022-10-28T00:53:20;13.70;99.90
53876;DHT22;39789;53.216;5.624;2022-10-28T00:55:47;13.60;99.90
53876;DHT22;39789;53.216;5.624;2022-10-28T00:58:13;13.60;99.90
53876;DHT22;39789;53.216;5.624;2022-10-28T01:00:40;13.60;99.90
53876;DHT22;39789;53.216;5.624;2022-10-28T01:03:05;13.60;99.90
53876;DHT22;39789;53.216;5.624;2022-10-28T01:05:33;13.60;99.90
53876;DHT22;39789;53.216;5.624;2022-10-28T01:08:01;13.60;99.90
53876;DHT22;39789;53.216;5.624;2022-10-28T01:10:54;13.60;99.90
53876;DHT22;39789;53.216;5.624;2022-10-28T01:16:15;13.60;99.90
53876;DHT22;39789;53.216;5.624;2022-10-28T01:27:37;13.50;99.90
53876;DHT22;39789;53.216;5.624;2022-10-28T01:30:17;13.50;99.90
53876;DHT22;39789;53.216;5.624;2022-10-28T01:32:47;13.50;99.90
53876;DHT22;39789;53.216;5.624;2022-10-28T01:35:25;13.40;99.90
53876;DHT22;39789;53.216;5.624;2022-10-28T01:40:50;13.30;99.90
53876;DHT22;39789;53.216;5.624;2022-10-28T01:43:25;13.30;99.90
53876;DHT22;39789;53.216;5.624;2022-10-28T01:49:26;13.40;99.90
53876;DHT22;39789;53.216;5.624;2022-10-28T01:51:56;13.40;99.90
53876;DHT22;39789;53.216;5.624;2022-10-28T01:54:25;13.40;99.90
53876;DHT22;39789;53.216;5.624;2022-10-28T01:56:54;13.40;99.90
53876;DHT22;39789;53.216;5.624;2022-10-28T01:59:26;13.40;99.90
53876;DHT22;39789;53.216;5.624;2022-10-28T02:01:53;13.40;99.90
53876;DHT22;39789;53.216;5.624;2022-10-28T02:04:19;13.40;99.90
53876;DHT22;39789;53.216;5.624;2022-10-28T02:06:47;13.40;99.90
53876;DHT22;39789;53.216;5.624;2022-10-28T02:12:10;13.50;99.90
53876;DHT22;39789;53.216;5.624;2022-10-28T02:15:00;13.50;99.90
53876;DHT22;39789;53.216;5.624;2022-10-28T02:17:53;13.50;99.90
53876;DHT22;39789;53.216;5.624;2022-10-28T02:23:16;13.50;99.90
53876;DHT22;39789;53.216;5.624;2022-10-28T02:25:50;13.40;99.90
53876;DHT22;39789;53.216;5.624;2022-10-28T02:28:23;13.50;99.90
53876;DHT22;39789;53.216;5.624;2022-10-28T02:30:54;13.40;99.90
53876;DHT22;39789;53.216;5.624;2022-10-28T02:33:27;13.50;99.90
53876;DHT22;39789;53.216;5.624;2022-10-28T02:35:58;13.50;99.90
53876;DHT22;39789;53.216;5.624;2022-10-28T02:38:35;13.40;99.90
53876;DHT22;39789;53.216;5.624;2022-10-28T02:41:07;13.50;99.90
53876;DHT22;39789;53.216;5.624;2022-10-28T02:43:37;13.40;99.90
53876;DHT22;39789;53.216;5.624;2022-10-28T02:46:04;13.40;99.90
53876;DHT22;39789;53.216;5.624;2022-10-28T02:48:35;13.50;99.90
53876;DHT22;39789;53.216;5.624;2022-10-28T02:51:08;13.50;99.90
53876;DHT22;39789;53.216;5.624;2022-10-28T02:54:00;13.50;99.90
53876;DHT22;39789;53.216;5.624;2022-10-28T02:56:28;13.50;99.90
53876;DHT22;39789;53.216;5.624;2022-10-28T02:58:56;13.50;99.90
53876;DHT22;39789;53.216;5.624;2022-10-28T03:01:21;13.40;99.90
53876;DHT22;39789;53.216;5.624;2022-10-28T03:03:47;13.40;99.90
53876;DHT22;39789;53.216;5.624;2022-10-28T03:06:13;13.30;99.90
53876;DHT22;39789;53.216;5.624;2022-10-28T03:08:38;13.20;99.90
53876;DHT22;39789;53.216;5.624;2022-10-28T03:11:04;13.20;99.90
53876;DHT22;39789;53.216;5.624;2022-10-28T03:13:29;13.10;99.90
53876;DHT22;39789;53.216;5.624;2022-10-28T03:15:55;13.10;99.90
53876;DHT22;39789;53.216;5.624;2022-10-28T03:18:21;13.00;99.90
53876;DHT22;39789;53.216;5.624;2022-10-28T03:20:46;13.00;99.90
53876;DHT22;39789;53.216;5.624;2022-10-28T03:23:12;13.00;99.90
53876;DHT22;39789;53.216;5.624;2022-10-28T03:25:37;13.10;99.90
53876;DHT22;39789;53.216;5.624;2022-10-28T03:28:03;13.10;99.90
53876;DHT22;39789;53.216;5.624;2022-10-28T03:30:28;13.10;99.90
53876;DHT22;39789;53.216;5.624;2022-10-28T03:32:54;13.10;99.90
53876;DHT22;39789;53.216;5.624;2022-10-28T03:35:20;13.10;99.90
53876;DHT22;39789;53.216;5.624;2022-10-28T03:37:45;13.10;99.90
53876;DHT22;39789;53.216;5.624;2022-10-28T03:40:11;13.10;99.90
53876;DHT22;39789;53.216;5.624;2022-10-28T03:42:39;13.10;99.90
53876;DHT22;39789;53.216;5.624;2022-10-28T03:45:06;13.10;99.90
53876;DHT22;39789;53.216;5.624;2022-10-28T03:47:33;13.10;99.90
53876;DHT22;39789;53.216;5.624;2022-10-28T03:49:59;13.10;99.90
53876;DHT22;39789;53.216;5.624;2022-10-28T03:52:24;13.10;99.90
53876;DHT22;39789;53.216;5.624;2022-10-28T03:54:50;13.00;99.90
53876;DHT22;39789;53.216;5.624;2022-10-28T03:57:15;12.90;99.90
53876;DHT22;39789;53.216;5.624;2022-10-28T03:59:41;12.90;99.90
53876;DHT22;39789;53.216;5.624;2022-10-28T04:02:06;12.80;99.90
53876;DHT22;39789;53.216;5.624;2022-10-28T04:04:32;12.70;99.90
53876;DHT22;39789;53.216;5.624;2022-10-28T04:06:57;12.70;99.90
53876;DHT22;39789;53.216;5.624;2022-10-28T04:09:23;12.70;99.90
53876;DHT22;39789;53.216;5.624;2022-10-28T04:11:48;12.60;99.90
53876;DHT22;39789;53.216;5.624;2022-10-28T04:14:14;12.60;99.90
53876;DHT22;39789;53.216;5.624;2022-10-28T04:16:39;12.70;99.90
53876;DHT22;39789;53.216;5.624;2022-10-28T04:19:05;12.70;99.90
53876;DHT22;39789;53.216;5.624;2022-10-28T04:21:31;12.70;99.90
53876;DHT22;39789;53.216;5.624;2022-10-28T04:23:57;12.80;99.90
53876;DHT22;39789;53.216;5.624;2022-10-28T04:26:22;12.90;99.90
53876;DHT22;39789;53.216;5.624;2022-10-28T04:28:48;12.90;99.90
53876;DHT22;39789;53.216;5.624;2022-10-28T04:31:13;12.90;99.90
53876;DHT22;39789;53.216;5.624;2022-10-28T04:33:39;12.80;99.90
53876;DHT22;39789;53.216;5.624;2022-10-28T04:36:05;12.70;99.90
53876;DHT22;39789;53.216;5.624;2022-10-28T04:38:30;12.70;99.90
53876;DHT22;39789;53.216;5.624;2022-10-28T04:40:56;12.70;99.90
53876;DHT22;39789;53.216;5.624;2022-10-28T04:43:21;12.80;99.90
53876;DHT22;39789;53.216;5.624;2022-10-28T04:45:47;12.80;99.90
53876;DHT22;39789;53.216;5.624;2022-10-28T04:48:13;12.80;99.90
53876;DHT22;39789;53.216;5.624;2022-10-28T04:50:38;12.80;99.90
53876;DHT22;39789;53.216;5.624;2022-10-28T04:53:04;12.80;99.90
53876;DHT22;39789;53.216;5.624;2022-10-28T04:55:30;12.80;99.90
53876;DHT22;39789;53.216;5.624;2022-10-28T04:57:57;12.80;99.90
53876;DHT22;39789;53.216;5.624;2022-10-28T05:00:24;12.80;99.90
53876;DHT22;39789;53.216;5.624;2022-10-28T05:02:50;12.80;99.90
53876;DHT22;39789;53.216;5.624;2022-10-28T05:05:23;12.80;99.90
53876;DHT22;39789;53.216;5.624;2022-10-28T05:07:48;12.80;99.90
53876;DHT22;39789;53.216;5.624;2022-10-28T05:10:14;12.80;99.90
53876;DHT22;39789;53.216;5.624;2022-10-28T05:12:41;12.80;99.90
53876;DHT22;39789;53.216;5.624;2022-10-28T05:15:08;12.80;99.90
53876;DHT22;39789;53.216;5.624;2022-10-28T05:17:34;12.90;99.90
53876;DHT22;39789;53.216;5.624;2022-10-28T05:19:59;12.90;99.90
53876;DHT22;39789;53.216;5.624;2022-10-28T05:22:25;12.90;99.90
53876;DHT22;39789;53.216;5.624;2022-10-28T05:24:50;12.90;99.90
53876;DHT22;39789;53.216;5.624;2022-10-28T05:27:16;12.80;99.90
53876;DHT22;39789;53.216;5.624;2022-10-28T05:29:41;12.90;99.90
53876;DHT22;39789;53.216;5.624;2022-10-28T05:32:07;13.40;99.90
53876;DHT22;39789;53.216;5.624;2022-10-28T05:34:33;12.80;99.90
53876;DHT22;39789;53.216;5.624;2022-10-28T05:36:58;12.80;99.90
53876;DHT22;39789;53.216;5.624;2022-10-28T05:39:24;12.90;99.90
53876;DHT22;39789;53.216;5.624;2022-10-28T05:41:49;12.80;99.90
53876;DHT22;39789;53.216;5.624;2022-10-28T05:44:15;12.80;99.90
53876;DHT22;39789;53.216;5.624;2022-10-28T05:46:40;12.80;99.90
53876;DHT22;39789;53.216;5.624;2022-10-28T05:49:06;12.80;99.90
53876;DHT22;39789;53.216;5.624;2022-10-28T05:51:32;12.80;99.90
53876;DHT22;39789;53.216;5.624;2022-10-28T05:53:57;12.80;99.90
53876;DHT22;39789;53.216;5.624;2022-10-28T05:56:23;12.70;99.90
53876;DHT22;39789;53.216;5.624;2022-10-28T05:58:48;12.70;99.90
53876;DHT22;39789;53.216;5.624;2022-10-28T06:01:15;12.70;99.90
53876;DHT22;39789;53.216;5.624;2022-10-28T06:03:40;12.70;99.90
53876;DHT22;39789;53.216;5.624;2022-10-28T06:06:06;12.70;99.90
53876;DHT22;39789;53.216;5.624;2022-10-28T06:08:32;12.70;99.90
53876;DHT22;39789;53.216;5.624;2022-10-28T06:10:58;12.70;99.90
53876;DHT22;39789;53.216;5.624;2022-10-28T06:13:24;12.60;99.90
53876;DHT22;39789;53.216;5.624;2022-10-28T06:15:53;12.60;99.90
53876;DHT22;39789;53.216;5.624;2022-10-28T06:18:20;12.60;99.90
53876;DHT22;39789;53.216;5.624;2022-10-28T06:20:59;12.50;99.90
53876;DHT22;39789;53.216;5.624;2022-10-28T06:23:25;12.40;99.90
53876;DHT22;39789;53.216;5.624;2022-10-28T06:25:59;12.30;99.90
53876;DHT22;39789;53.216;5.624;2022-10-28T06:28:25;12.20;99.90
53876;DHT22;39789;53.216;5.624;2022-10-28T06:30:50;12.20;99.90
53876;DHT22;39789;53.216;5.624;2022-10-28T06:33:16;12.20;99.90
53876;DHT22;39789;53.216;5.624;2022-10-28T06:35:42;12.10;99.90
53876;DHT22;39789;53.216;5.624;2022-10-28T06:38:08;12.20;99.90
53876;DHT22;39789;53.216;5.624;2022-10-28T06:40:33;12.20;99.90
53876;DHT22;39789;53.216;5.624;2022-10-28T06:43:01;12.20;99.90
53876;DHT22;39789;53.216;5.624;2022-10-28T06:45:31;12.20;99.90
53876;DHT22;39789;53.216;5.624;2022-10-28T06:47:58;12.30;99.90
53876;DHT22;39789;53.216;5.624;2022-10-28T06:50:24;12.30;99.90
53876;DHT22;39789;53.216;5.624;2022-10-28T06:52:49;12.30;99.90
53876;DHT22;39789;53.216;5.624;2022-10-28T06:55:15;12.40;99.90
53876;DHT22;39789;53.216;5.624;2022-10-28T06:57:41;13.00;99.90
53876;DHT22;39789;53.216;5.624;2022-10-28T07:00:07;12.40;99.90
53876;DHT22;39789;53.216;5.624;2022-10-28T07:02:32;12.50;99.90
53876;DHT22;39789;53.216;5.624;2022-10-28T07:08:39;12.50;99.90
53876;DHT22;39789;53.216;5.624;2022-10-28T07:11:04;12.60;99.90
53876;DHT22;39789;53.216;5.624;2022-10-28T07:13:30;12.60;99.90
53876;DHT22;39789;53.216;5.624;2022-10-28T07:15:57;12.70;99.90
53876;DHT22;39789;53.216;5.624;2022-10-28T07:18:24;12.70;99.90
53876;DHT22;39789;53.216;5.624;2022-10-28T07:20:50;12.80;99.90
53876;DHT22;39789;53.216;5.624;2022-10-28T07:23:16;12.90;99.90
53876;DHT22;39789;53.216;5.624;2022-10-28T07:25:42;12.90;99.90
53876;DHT22;39789;53.216;5.624;2022-10-28T07:28:07;12.90;99.90
53876;DHT22;39789;53.216;5.624;2022-10-28T07:30:33;13.00;99.90
53876;DHT22;39789;53.216;5.624;2022-10-28T07:32:59;13.00;99.90
53876;DHT22;39789;53.216;5.624;2022-10-28T07:35:29;13.10;99.90
53876;DHT22;39789;53.216;5.624;2022-10-28T07:37:56;13.20;99.90
53876;DHT22;39789;53.216;5.624;2022-10-28T07:40:23;13.20;99.90
53876;DHT22;39789;53.216;5.624;2022-10-28T07:42:49;13.30;99.90
53876;DHT22;39789;53.216;5.624;2022-10-28T07:45:14;13.40;99.90
53876;DHT22;39789;53.216;5.624;2022-10-28T07:47:40;13.50;99.90
53876;DHT22;39789;53.216;5.624;2022-10-28T07:50:06;13.50;99.90
53876;DHT22;39789;53.216;5.624;2022-10-28T07:52:33;13.60;99.90
53876;DHT22;39789;53.216;5.624;2022-10-28T07:54:59;13.70;99.90
53876;DHT22;39789;53.216;5.624;2022-10-28T07:57:24;13.80;99.90
53876;DHT22;39789;53.216;5.624;2022-10-28T07:59:50;14.30;99.90
53876;DHT22;39789;53.216;5.624;2022-10-28T08:02:18;14.00;99.90
53876;DHT22;39789;53.216;5.624;2022-10-28T08:04:45;14.10;99.90
53876;DHT22;39789;53.216;5.624;2022-10-28T08:07:11;14.20;99.90
53876;DHT22;39789;53.216;5.624;2022-10-28T08:09:38;14.30;99.90
53876;DHT22;39789;53.216;5.624;2022-10-28T08:12:04;14.40;99.90
53876;DHT22;39789;53.216;5.624;2022-10-28T08:14:30;14.60;99.90
53876;DHT22;39789;53.216;5.624;2022-10-28T08:16:55;14.70;99.90
53876;DHT22;39789;53.216;5.624;2022-10-28T08:19:21;14.70;99.90
53876;DHT22;39789;53.216;5.624;2022-10-28T08:21:47;14.80;99.90
53876;DHT22;39789;53.216;5.624;2022-10-28T08:24:12;14.90;99.90
53876;DHT22;39789;53.216;5.624;2022-10-28T08:26:38;15.00;99.90
53876;DHT22;39789;53.216;5.624;2022-10-28T08:29:04;15.00;99.90
53876;DHT22;39789;53.216;5.624;2022-10-28T08:31:33;15.10;99.90
53876;DHT22;39789;53.216;5.624;2022-10-28T08:33:58;15.10;99.90
53876;DHT22;39789;53.216;5.624;2022-10-28T08:36:24;15.20;99.90
53876;DHT22;39789;53.216;5.624;2022-10-28T08:38:50;15.20;99.90
53876;DHT22;39789;53.216;5.624;2022-10-28T08:41:33;15.20;99.90
53876;DHT22;39789;53.216;5.624;2022-10-28T08:49:45;15.30;99.90
53876;DHT22;39789;53.216;5.624;2022-10-28T08:52:20;15.30;99.90
53876;DHT22;39789;53.216;5.624;2022-10-28T08:54:54;15.30;99.90
53876;DHT22;39789;53.216;5.624;2022-10-28T08:57:39;15.30;99.90
53876;DHT22;39789;53.216;5.624;2022-10-28T09:00:28;15.40;99.90
53876;DHT22;39789;53.216;5.624;2022-10-28T09:02:58;15.40;99.90
53876;DHT22;39789;53.216;5.624;2022-10-28T09:05:26;15.40;99.90
53876;DHT22;39789;53.216;5.624;2022-10-28T09:07:52;15.50;99.90
53876;DHT22;39789;53.216;5.624;2022-10-28T09:24:54;15.60;99.90
53876;DHT22;39789;53.216;5.624;2022-10-28T09:27:30;15.70;99.90
53876;DHT22;39789;53.216;5.624;2022-10-28T09:36:00;15.80;99.90
53876;DHT22;39789;53.216;5.624;2022-10-28T09:38:33;15.90;99.90
53876;DHT22;39789;53.216;5.624;2022-10-28T09:43:51;15.90;99.90
53876;DHT22;39789;53.216;5.624;2022-10-28T09:46:18;16.40;99.90
53876;DHT22;39789;53.216;5.624;2022-10-28T09:48:48;16.00;99.90
53876;DHT22;39789;53.216;5.624;2022-10-28T09:53:50;16.20;99.90
53876;DHT22;39789;53.216;5.624;2022-10-28T09:56:16;16.20;99.90
53876;DHT22;39789;53.216;5.624;2022-10-28T09:58:47;16.40;99.90
53876;DHT22;39789;53.216;5.624;2022-10-28T10:01:15;16.50;99.90
53876;DHT22;39789;53.216;5.624;2022-10-28T10:03:41;16.60;99.90
53876;DHT22;39789;53.216;5.624;2022-10-28T10:06:36;16.60;99.90
53876;DHT22;39789;53.216;5.624;2022-10-28T10:12:43;16.70;99.90
53876;DHT22;39789;53.216;5.624;2022-10-28T10:15:24;16.80;99.90
53876;DHT22;39789;53.216;5.624;2022-10-28T10:17:51;16.80;99.90
53876;DHT22;39789;53.216;5.624;2022-10-28T10:20:20;16.90;99.90
53876;DHT22;39789;53.216;5.624;2022-10-28T10:22:47;17.00;99.90
53876;DHT22;39789;53.216;5.624;2022-10-28T10:27:52;17.10;99.90
53876;DHT22;39789;53.216;5.624;2022-10-28T10:30:48;17.10;99.90
53876;DHT22;39789;53.216;5.624;2022-10-28T10:33:27;17.10;99.90
53876;DHT22;39789;53.216;5.624;2022-10-28T10:36:22;17.20;99.90
53876;DHT22;39789;53.216;5.624;2022-10-28T10:38:50;17.20;99.90
53876;DHT22;39789;53.216;5.624;2022-10-28T10:41:36;17.30;99.90
53876;DHT22;39789;53.216;5.624;2022-10-28T10:49:37;17.60;99.90
53876;DHT22;39789;53.216;5.624;2022-10-28T10:52:13;17.70;99.90
53876;DHT22;39789;53.216;5.624;2022-10-28T10:54:47;17.90;99.90
53876;DHT22;39789;53.216;5.624;2022-10-28T10:57:21;17.90;99.90
53876;DHT22;39789;53.216;5.624;2022-10-28T11:00:02;18.00;99.90
53876;DHT22;39789;53.216;5.624;2022-10-28T11:02:32;18.00;99.90
53876;DHT22;39789;53.216;5.624;2022-10-28T11:05:02;18.10;99.90
53876;DHT22;39789;53.216;5.624;2022-10-28T11:07:28;18.10;99.90
53876;DHT22;39789;53.216;5.624;2022-10-28T11:09:55;18.20;99.90
53876;DHT22;39789;53.216;5.624;2022-10-28T11:12:33;18.60;99.90
53876;DHT22;39789;53.216;5.624;2022-10-28T11:15:18;18.10;99.90
53876;DHT22;39789;53.216;5.624;2022-10-28T11:18:21;18.20;99.90
53876;DHT22;39789;53.216;5.624;2022-10-28T11:21:03;18.20;99.90
53876;DHT22;39789;53.216;5.624;2022-10-28T11:26:22;18.20;99.90
53876;DHT22;39789;53.216;5.624;2022-10-28T11:44:14;18.20;99.90
53876;DHT22;39789;53.216;5.624;2022-10-28T11:46:55;18.20;99.90
53876;DHT22;39789;53.216;5.624;2022-10-28T11:55:37;18.20;99.90
53876;DHT22;39789;53.216;5.624;2022-10-28T11:58:29;18.20;99.90
53876;DHT22;39789;53.216;5.624;2022-10-28T12:01:10;18.20;99.90
53876;DHT22;39789;53.216;5.624;2022-10-28T12:09:13;18.20;99.90
53876;DHT22;39789;53.216;5.624;2022-10-28T12:11:47;18.20;99.90
53876;DHT22;39789;53.216;5.624;2022-10-28T12:14:47;18.40;99.90
53876;DHT22;39789;53.216;5.624;2022-10-28T12:19:58;18.40;99.90
53876;DHT22;39789;53.216;5.624;2022-10-28T12:25:46;18.40;99.90
53876;DHT22;39789;53.216;5.624;2022-10-28T12:28:29;18.50;99.90
53876;DHT22;39789;53.216;5.624;2022-10-28T12:30:57;18.50;99.90
53876;DHT22;39789;53.216;5.624;2022-10-28T12:33:44;18.40;99.90
53876;DHT22;39789;53.216;5.624;2022-10-28T12:39:05;18.40;99.90
53876;DHT22;39789;53.216;5.624;2022-10-28T12:41:53;18.40;99.90
53876;DHT22;39789;53.216;5.624;2022-10-28T12:44:21;18.40;99.90
53876;DHT22;39789;53.216;5.624;2022-10-28T12:47:15;18.40;99.90
53876;DHT22;39789;53.216;5.624;2022-10-28T12:52:46;18.40;99.90
53876;DHT22;39789;53.216;5.624;2022-10-28T12:57:38;18.30;99.90
53876;DHT22;39789;53.216;5.624;2022-10-28T13:00:25;18.30;99.90
53876;DHT22;39789;53.216;5.624;2022-10-28T13:03:07;18.30;99.90
53876;DHT22;39789;53.216;5.624;2022-10-28T13:06:05;18.30;99.90
53876;DHT22;39789;53.216;5.624;2022-10-28T13:08:42;18.40;99.90
53876;DHT22;39789;53.216;5.624;2022-10-28T13:14:07;18.30;99.90
53876;DHT22;39789;53.216;5.624;2022-10-28T13:16:44;18.30;99.90
53876;DHT22;39789;53.216;5.624;2022-10-28T13:25:26;18.20;99.90
53876;DHT22;39789;53.216;5.624;2022-10-28T13:27:58;18.20;99.90
53876;DHT22;39789;53.216;5.624;2022-10-28T13:30:25;18.20;99.90
53876;DHT22;39789;53.216;5.624;2022-10-28T13:33:02;18.20;99.90
53876;DHT22;39789;53.216;5.624;2022-10-28T13:35:28;18.20;99.90
53876;DHT22;39789;53.216;5.624;2022-10-28T13:37:54;18.10;99.90
53876;DHT22;39789;53.216;5.624;2022-10-28T13:42:54;18.10;99.90
53876;DHT22;39789;53.216;5.624;2022-10-28T13:48:45;18.10;99.90
53876;DHT22;39789;53.216;5.624;2022-10-28T13:53:53;18.10;99.90
53876;DHT22;39789;53.216;5.624;2022-10-28T13:56:28;18.00;99.90
53876;DHT22;39789;53.216;5.624;2022-10-28T13:58:57;18.00;99.90
53876;DHT22;39789;53.216;5.624;2022-10-28T14:01:47;18.10;99.90
53876;DHT22;39789;53.216;5.624;2022-10-28T14:04:33;18.00;99.90
53876;DHT22;39789;53.216;5.624;2022-10-28T14:09:37;18.00;99.90
53876;DHT22;39789;53.216;5.624;2022-10-28T14:12:30;18.00;99.90
53876;DHT22;39789;53.216;5.624;2022-10-28T14:15:15;18.00;99.90
53876;DHT22;39789;53.216;5.624;2022-10-28T14:47:40;17.70;99.90
53876;DHT22;39789;53.216;5.624;2022-10-28T14:50:33;17.70;99.90
53876;DHT22;39789;53.216;5.624;2022-10-28T14:53:04;17.60;99.90
53876;DHT22;39789;53.216;5.624;2022-10-28T14:55:33;17.60;99.90
53876;DHT22;39789;53.216;5.624;2022-10-28T14:58:49;17.60;99.90
53876;DHT22;39789;53.216;5.624;2022-10-28T15:01:20;17.60;99.90
53876;DHT22;39789;53.216;5.624;2022-10-28T15:03:50;17.60;99.90
53876;DHT22;39789;53.216;5.624;2022-10-28T15:06:39;17.50;99.90
53876;DHT22;39789;53.216;5.624;2022-10-28T15:09:18;17.50;99.90
53876;DHT22;39789;53.216;5.624;2022-10-28T15:11:48;17.50;99.90
53876;DHT22;39789;53.216;5.624;2022-10-28T15:16:52;17.40;99.90
53876;DHT22;39789;53.216;5.624;2022-10-28T15:19:21;17.40;99.90
53876;DHT22;39789;53.216;5.624;2022-10-28T15:22:01;17.40;99.90
53876;DHT22;39789;53.216;5.624;2022-10-28T15:27:44;17.30;99.90
53876;DHT22;39789;53.216;5.624;2022-10-28T15:30:19;17.30;99.90
53876;DHT22;39789;53.216;5.624;2022-10-28T15:32:47;17.30;99.90
53876;DHT22;39789;53.216;5.624;2022-10-28T15:37:56;17.20;99.90
53876;DHT22;39789;53.216;5.624;2022-10-28T15:40:41;17.40;99.90
53876;DHT22;39789;53.216;5.624;2022-10-28T15:43:28;17.20;99.90
53876;DHT22;39789;53.216;5.624;2022-10-28T15:46:08;17.20;99.90
53876;DHT22;39789;53.216;5.624;2022-10-28T15:48:34;17.20;99.90
53876;DHT22;39789;53.216;5.624;2022-10-28T15:51:13;17.20;99.90
53876;DHT22;39789;53.216;5.624;2022-10-28T15:53:40;17.20;99.90
53876;DHT22;39789;53.216;5.624;2022-10-28T15:58:45;17.20;99.90
53876;DHT22;39789;53.216;5.624;2022-10-28T16:03:56;17.10;99.90
53876;DHT22;39789;53.216;5.624;2022-10-28T16:06:29;17.10;99.90
53876;DHT22;39789;53.216;5.624;2022-10-28T16:09:13;17.10;99.90
53876;DHT22;39789;53.216;5.624;2022-10-28T16:11:44;17.10;99.90
53876;DHT22;39789;53.216;5.624;2022-10-28T16:14:35;17.00;99.90
53876;DHT22;39789;53.216;5.624;2022-10-28T16:19:57;17.00;99.90
53876;DHT22;39789;53.216;5.624;2022-10-28T16:22:27;17.00;99.90
53876;DHT22;39789;53.216;5.624;2022-10-28T16:24:54;16.90;99.90
53876;DHT22;39789;53.216;5.624;2022-10-28T16:27:22;16.90;99.90
53876;DHT22;39789;53.216;5.624;2022-10-28T16:29:48;17.30;99.90
53876;DHT22;39789;53.216;5.624;2022-10-28T16:32:15;16.90;99.90
53876;DHT22;39789;53.216;5.624;2022-10-28T16:34:41;16.80;99.90
53876;DHT22;39789;53.216;5.624;2022-10-28T16:37:23;17.10;99.90
53876;DHT22;39789;53.216;5.624;2022-10-28T16:39:50;16.80;99.90
53876;DHT22;39789;53.216;5.624;2022-10-28T16:42:16;16.80;99.90
53876;DHT22;39789;53.216;5.624;2022-10-28T16:44:42;16.70;99.90
53876;DHT22;39789;53.216;5.624;2022-10-28T16:47:10;17.50;99.90
53876;DHT22;39789;53.216;5.624;2022-10-28T16:49:36;16.70;99.90
53876;DHT22;39789;53.216;5.624;2022-10-28T16:52:02;16.70;99.90
53876;DHT22;39789;53.216;5.624;2022-10-28T16:54:28;16.70;99.90
53876;DHT22;39789;53.216;5.624;2022-10-28T16:56:53;16.60;99.90
53876;DHT22;39789;53.216;5.624;2022-10-28T16:59:19;16.80;99.90
53876;DHT22;39789;53.216;5.624;2022-10-28T17:01:44;17.00;99.90
53876;DHT22;39789;53.216;5.624;2022-10-28T17:04:10;16.60;99.90
53876;DHT22;39789;53.216;5.624;2022-10-28T17:06:35;16.60;99.90
53876;DHT22;39789;53.216;5.624;2022-10-28T17:09:01;16.50;99.90
53876;DHT22;39789;53.216;5.624;2022-10-28T17:11:27;16.50;99.90
53876;DHT22;39789;53.216;5.624;2022-10-28T17:13:53;16.50;99.90
53876;DHT22;39789;53.216;5.624;2022-10-28T17:16:18;16.50;99.90
53876;DHT22;39789;53.216;5.624;2022-10-28T17:18:44;16.50;99.90
53876;DHT22;39789;53.216;5.624;2022-10-28T17:21:11;16.50;99.90
53876;DHT22;39789;53.216;5.624;2022-10-28T17:23:38;16.50;99.90
53876;DHT22;39789;53.216;5.624;2022-10-28T17:26:04;16.40;99.90
53876;DHT22;39789;53.216;5.624;2022-10-28T17:28:29;16.40;99.90
53876;DHT22;39789;53.216;5.624;2022-10-28T17:31:04;16.40;99.90
53876;DHT22;39789;53.216;5.624;2022-10-28T17:33:30;16.40;99.90
53876;DHT22;39789;53.216;5.624;2022-10-28T17:36:00;16.40;99.90
53876;DHT22;39789;53.216;5.624;2022-10-28T17:38:26;16.40;99.90
53876;DHT22;39789;53.216;5.624;2022-10-28T17:40:53;16.30;99.90
53876;DHT22;39789;53.216;5.624;2022-10-28T17:43:19;16.30;99.90
53876;DHT22;39789;53.216;5.624;2022-10-28T17:45:45;16.30;99.90
53876;DHT22;39789;53.216;5.624;2022-10-28T17:48:11;16.30;99.90
53876;DHT22;39789;53.216;5.624;2022-10-28T17:50:36;16.30;99.90
53876;DHT22;39789;53.216;5.624;2022-10-28T17:53:02;16.30;99.90
53876;DHT22;39789;53.216;5.624;2022-10-28T17:55:27;16.30;99.90
53876;DHT22;39789;53.216;5.624;2022-10-28T17:57:53;16.30;99.90
53876;DHT22;39789;53.216;5.624;2022-10-28T18:00:18;16.30;99.90
53876;DHT22;39789;53.216;5.624;2022-10-28T18:02:44;16.30;99.90
53876;DHT22;39789;53.216;5.624;2022-10-28T18:05:10;16.30;99.90
53876;DHT22;39789;53.216;5.624;2022-10-28T18:07:35;16.30;99.90
53876;DHT22;39789;53.216;5.624;2022-10-28T18:10:01;16.30;99.90
53876;DHT22;39789;53.216;5.624;2022-10-28T18:12:26;16.30;99.90
53876;DHT22;39789;53.216;5.624;2022-10-28T18:14:52;16.30;99.90
53876;DHT22;39789;53.216;5.624;2022-10-28T18:17:18;16.20;99.90
53876;DHT22;39789;53.216;5.624;2022-10-28T18:19:43;16.20;99.90
53876;DHT22;39789;53.216;5.624;2022-10-28T18:22:09;16.50;99.90
53876;DHT22;39789;53.216;5.624;2022-10-28T18:24:34;16.20;99.90
53876;DHT22;39789;53.216;5.624;2022-10-28T18:27:00;16.20;99.90
53876;DHT22;39789;53.216;5.624;2022-10-28T18:29:25;16.10;99.90
53876;DHT22;39789;53.216;5.624;2022-10-28T18:35:33;16.10;99.90
53876;DHT22;39789;53.216;5.624;2022-10-28T18:37:58;16.10;99.90
53876;DHT22;39789;53.216;5.624;2022-10-28T18:40:25;16.10;99.90
53876;DHT22;39789;53.216;5.624;2022-10-28T18:42:51;16.00;99.90
53876;DHT22;39789;53.216;5.624;2022-10-28T18:45:16;16.00;99.90
53876;DHT22;39789;53.216;5.624;2022-10-28T18:47:42;16.00;99.90
53876;DHT22;39789;53.216;5.624;2022-10-28T18:50:08;16.10;99.90
53876;DHT22;39789;53.216;5.624;2022-10-28T18:52:34;16.50;99.90